To NAV CANADA Home Page Login to a new session Search on AWWS site Disclaimer Vers la page française équivalente Tips FAQ What's new on the site To the Forecasts and Observations / NOTAM section To "File a Flight Plan" website Publications and other links Update of the User's profile FIC Telephone Numbers My Weather Data Folder Route Weather Data Regional Weather Data Local Weather Data To the Forecasts and Observations / NOTAM section
Request Generated 11/13/2018 at 18:23:45 UTC . Weather information available at that time is displayed.

METAR/TAF

QUEBEC/JEAN LESAGE INTL/QC    

METAR CYQB 131800Z 07008KT 1SM R06/P6000FT/U -SN BKN004 OVC011 00/M00 A2993 RMK SN1SF5SC2 /S06/ SLP139=
SPECI CYQB 131724Z 06008KT 1SM R06/6000FT/U -SN BKN004 BKN012 M00/M01 A2995 RMK SN4SF2SC1 SLP148=
METAR CYQB 131700Z 06008KT 3/4SM R06/5000FT/N -SN VV004 M00/M01 A2997 RMK SN8 /S05/ SLP155=
SPECI CYQB 131639Z 06008KT 3/4SM R06/5500FT/N -SN VV003 M00/M01 A2998 RMK SN8 PRESFR SLP159=
METAR CYQB 131600Z 07008KT 3/4SM R06/3500FT/U -SN BKN004 OVC011 M00/M01 A3002 RMK SN2SF4SC2 /S03/ PRESFR SLP171=

TAF CYQB 131742Z 1318/1418 05006KT 3/4SM -SN BKN004 OVC012
FM132100 24005KT 11/2SM -SN OVC008 TEMPO 1321/1402 3SM -SN OVC012
BECMG 1322/1324 26010G20KT
FM140200 26012G22KT P6SM SCT020 BKN050 TEMPO 1402/1406 BKN020
FM140600 26015G25KT P6SM SCT030
RMK NXT FCST BY 140000Z=
Your time UTC time
Weather data provided by Environment Canada and NAV CANADA